Columbus, New Mexico
Current Conditions -  °F | °C
As of 4:53 PM on Thursday 18 Dec 2014 (Local Time) from KDMN Reporting Station
Overcast Overcast  
Wind Chill: 40°   Ceiling: 4300
Heat Index: 44°   Visibility: 10mi
Dew Point: 40°   Wind: 7mph
Humidity: 85%   Direction: 290°WNW
Pressure: 30.08"   Gusts: NA
Location:  31.83°N, 107.64°W
Report Text: KDMN 182353Z AUTO 29006KT 10SM BKN043 OVC055 07/04 A3008 RMK AO2 RAE25 SLP169 P0000 60003 T00670044 10111 20044 53009
Loading
Personal Weather Stations






























Interactive Weather Map New forecast layout! Learn more

10-Day Weather Forecast

Advertisements
Track Severe Weather on mobile